sensor_id;sensor_type;location;lat;lon;timestamp;P1;durP1;ratioP1;P2;durP2;ratioP2
11319;SDS011;5715;48.234;14.320;2023-07-20T00:00:40;5.82;;;5.18;;
11319;SDS011;5715;48.234;14.320;2023-07-20T00:03:30;8.00;;;4.82;;
11319;SDS011;5715;48.234;14.320;2023-07-20T00:06:18;5.57;;;5.15;;
11319;SDS011;5715;48.234;14.320;2023-07-20T00:09:09;5.57;;;5.28;;
11319;SDS011;5715;48.234;14.320;2023-07-20T00:11:57;11.00;;;6.03;;
11319;SDS011;5715;48.234;14.320;2023-07-20T00:14:47;6.03;;;5.53;;
11319;SDS011;5715;48.234;14.320;2023-07-20T00:17:34;5.22;;;4.93;;
11319;SDS011;5715;48.234;14.320;2023-07-20T00:20:24;6.25;;;5.85;;
11319;SDS011;5715;48.234;14.320;2023-07-20T00:23:12;4.95;;;4.55;;
11319;SDS011;5715;48.234;14.320;2023-07-20T00:26:01;6.28;;;5.88;;
11319;SDS011;5715;48.234;14.320;2023-07-20T00:28:49;5.72;;;5.43;;
11319;SDS011;5715;48.234;14.320;2023-07-20T00:31:38;5.25;;;5.03;;
11319;SDS011;5715;48.234;14.320;2023-07-20T00:34:25;4.75;;;4.55;;
11319;SDS011;5715;48.234;14.320;2023-07-20T00:37:13;6.90;;;5.03;;
11319;SDS011;5715;48.234;14.320;2023-07-20T00:40:01;5.20;;;4.97;;
11319;SDS011;5715;48.234;14.320;2023-07-20T00:42:51;5.32;;;4.93;;
11319;SDS011;5715;48.234;14.320;2023-07-20T00:45:39;4.53;;;4.32;;
11319;SDS011;5715;48.234;14.320;2023-07-20T00:48:27;4.50;;;4.20;;
11319;SDS011;5715;48.234;14.320;2023-07-20T00:51:15;6.68;;;4.70;;
11319;SDS011;5715;48.234;14.320;2023-07-20T00:54:03;4.93;;;4.63;;
11319;SDS011;5715;48.234;14.320;2023-07-20T00:56:52;4.57;;;4.28;;
11319;SDS011;5715;48.234;14.320;2023-07-20T00:59:41;3.55;;;3.35;;
11319;SDS011;5715;48.234;14.320;2023-07-20T01:02:30;3.65;;;3.35;;
11319;SDS011;5715;48.234;14.320;2023-07-20T01:05:18;3.45;;;3.25;;
11319;SDS011;5715;48.234;14.320;2023-07-20T01:08:18;3.00;;;2.80;;
11319;SDS011;5715;48.234;14.320;2023-07-20T01:14:30;3.53;;;3.20;;
11319;SDS011;5715;48.234;14.320;2023-07-20T01:17:19;3.00;;;2.80;;
11319;SDS011;5715;48.234;14.320;2023-07-20T01:20:08;4.65;;;2.50;;
11319;SDS011;5715;48.234;14.320;2023-07-20T01:26:48;2.70;;;2.50;;
11319;SDS011;5715;48.234;14.320;2023-07-20T01:33:26;2.63;;;2.42;;
11319;SDS011;5715;48.234;14.320;2023-07-20T01:36:19;3.78;;;2.78;;
11319;SDS011;5715;48.234;14.320;2023-07-20T01:39:11;2.47;;;2.35;;
11319;SDS011;5715;48.234;14.320;2023-07-20T01:41:59;2.97;;;2.78;;
11319;SDS011;5715;48.234;14.320;2023-07-20T01:44:47;2.42;;;2.33;;
11319;SDS011;5715;48.234;14.320;2023-07-20T01:47:38;3.42;;;2.90;;
11319;SDS011;5715;48.234;14.320;2023-07-20T01:50:26;2.75;;;2.55;;
11319;SDS011;5715;48.234;14.320;2023-07-20T01:53:13;3.30;;;3.10;;
11319;SDS011;5715;48.234;14.320;2023-07-20T01:56:01;3.42;;;3.10;;
11319;SDS011;5715;48.234;14.320;2023-07-20T01:58:48;3.30;;;3.00;;
11319;SDS011;5715;48.234;14.320;2023-07-20T02:01:36;6.45;;;2.70;;
11319;SDS011;5715;48.234;14.320;2023-07-20T02:04:24;5.07;;;3.47;;
11319;SDS011;5715;48.234;14.320;2023-07-20T02:07:11;3.60;;;3.30;;
11319;SDS011;5715;48.234;14.320;2023-07-20T02:09:59;3.30;;;3.00;;
11319;SDS011;5715;48.234;14.320;2023-07-20T02:12:46;3.67;;;3.38;;
11319;SDS011;5715;48.234;14.320;2023-07-20T02:15:34;3.20;;;3.00;;
11319;SDS011;5715;48.234;14.320;2023-07-20T02:18:22;3.85;;;3.33;;
11319;SDS011;5715;48.234;14.320;2023-07-20T02:21:09;3.63;;;3.33;;
11319;SDS011;5715;48.234;14.320;2023-07-20T02:23:57;2.92;;;2.72;;
11319;SDS011;5715;48.234;14.320;2023-07-20T02:26:44;3.97;;;3.67;;
11319;SDS011;5715;48.234;14.320;2023-07-20T02:29:32;2.67;;;2.47;;
11319;SDS011;5715;48.234;14.320;2023-07-20T02:32:20;3.72;;;3.20;;
11319;SDS011;5715;48.234;14.320;2023-07-20T02:35:08;4.93;;;3.97;;
11319;SDS011;5715;48.234;14.320;2023-07-20T02:37:55;3.00;;;2.75;;
11319;SDS011;5715;48.234;14.320;2023-07-20T02:40:43;3.72;;;2.53;;
11319;SDS011;5715;48.234;14.320;2023-07-20T02:43:30;2.67;;;2.47;;
11319;SDS011;5715;48.234;14.320;2023-07-20T02:46:18;2.42;;;2.33;;
11319;SDS011;5715;48.234;14.320;2023-07-20T02:49:06;5.55;;;2.78;;
11319;SDS011;5715;48.234;14.320;2023-07-20T02:51:53;2.72;;;2.53;;
11319;SDS011;5715;48.234;14.320;2023-07-20T02:54:41;3.13;;;2.80;;
11319;SDS011;5715;48.234;14.320;2023-07-20T02:57:29;4.03;;;3.10;;
11319;SDS011;5715;48.234;14.320;2023-07-20T03:00:16;2.30;;;2.20;;
11319;SDS011;5715;48.234;14.320;2023-07-20T03:03:06;3.67;;;3.15;;
11319;SDS011;5715;48.234;14.320;2023-07-20T03:05:57;3.35;;;2.78;;
11319;SDS011;5715;48.234;14.320;2023-07-20T03:08:46;2.83;;;2.53;;
11319;SDS011;5715;48.234;14.320;2023-07-20T03:11:38;2.58;;;2.38;;
11319;SDS011;5715;48.234;14.320;2023-07-20T03:14:26;2.85;;;2.60;;
11319;SDS011;5715;48.234;14.320;2023-07-20T03:17:13;2.60;;;2.40;;
11319;SDS011;5715;48.234;14.320;2023-07-20T03:20:01;1.85;;;1.75;;
11319;SDS011;5715;48.234;14.320;2023-07-20T03:22:49;4.82;;;2.78;;
11319;SDS011;5715;48.234;14.320;2023-07-20T03:25:37;3.22;;;2.92;;
11319;SDS011;5715;48.234;14.320;2023-07-20T03:28:25;2.38;;;2.17;;
11319;SDS011;5715;48.234;14.320;2023-07-20T03:31:13;3.33;;;3.03;;
11319;SDS011;5715;48.234;14.320;2023-07-20T03:34:01;3.30;;;3.00;;
11319;SDS011;5715;48.234;14.320;2023-07-20T03:36:49;3.47;;;3.17;;
11319;SDS011;5715;48.234;14.320;2023-07-20T03:39:37;2.50;;;2.30;;
11319;SDS011;5715;48.234;14.320;2023-07-20T03:42:24;2.38;;;2.17;;
11319;SDS011;5715;48.234;14.320;2023-07-20T03:45:12;3.75;;;3.22;;
11319;SDS011;5715;48.234;14.320;2023-07-20T03:47:59;3.53;;;2.78;;
11319;SDS011;5715;48.234;14.320;2023-07-20T03:50:47;2.65;;;2.45;;
11319;SDS011;5715;48.234;14.320;2023-07-20T03:53:37;2.88;;;2.67;;
11319;SDS011;5715;48.234;14.320;2023-07-20T03:56:25;2.92;;;2.72;;
11319;SDS011;5715;48.234;14.320;2023-07-20T03:59:13;6.18;;;3.03;;
11319;SDS011;5715;48.234;14.320;2023-07-20T04:02:00;4.10;;;3.70;;
11319;SDS011;5715;48.234;14.320;2023-07-20T04:04:48;6.90;;;3.95;;
11319;SDS011;5715;48.234;14.320;2023-07-20T04:07:36;6.68;;;2.50;;
11319;SDS011;5715;48.234;14.320;2023-07-20T04:10:23;3.05;;;2.65;;
11319;SDS011;5715;48.234;14.320;2023-07-20T04:13:11;2.67;;;2.53;;
11319;SDS011;5715;48.234;14.320;2023-07-20T04:15:59;2.30;;;2.15;;
11319;SDS011;5715;48.234;14.320;2023-07-20T04:18:47;2.55;;;2.35;;
11319;SDS011;5715;48.234;14.320;2023-07-20T04:21:39;2.45;;;2.25;;
11319;SDS011;5715;48.234;14.320;2023-07-20T04:24:28;2.58;;;2.38;;
11319;SDS011;5715;48.234;14.320;2023-07-20T04:27:15;2.70;;;2.50;;
11319;SDS011;5715;48.234;14.320;2023-07-20T04:30:03;2.53;;;2.33;;
11319;SDS011;5715;48.234;14.320;2023-07-20T04:32:54;2.60;;;2.40;;
11319;SDS011;5715;48.234;14.320;2023-07-20T04:35:46;3.35;;;3.10;;
11319;SDS011;5715;48.234;14.320;2023-07-20T04:38:40;3.28;;;2.97;;
11319;SDS011;5715;48.234;14.320;2023-07-20T04:41:27;2.80;;;2.45;;
11319;SDS011;5715;48.234;14.320;2023-07-20T04:44:15;4.32;;;3.35;;
11319;SDS011;5715;48.234;14.320;2023-07-20T04:47:02;4.70;;;3.28;;
11319;SDS011;5715;48.234;14.320;2023-07-20T04:49:50;9.07;;;3.35;;
11319;SDS011;5715;48.234;14.320;2023-07-20T04:52:38;3.08;;;2.88;;
11319;SDS011;5715;48.234;14.320;2023-07-20T04:55:29;6.32;;;3.13;;
11319;SDS011;5715;48.234;14.320;2023-07-20T04:58:16;3.30;;;3.10;;
11319;SDS011;5715;48.234;14.320;2023-07-20T05:01:05;2.97;;;2.78;;
11319;SDS011;5715;48.234;14.320;2023-07-20T05:03:54;2.88;;;2.78;;
11319;SDS011;5715;48.234;14.320;2023-07-20T05:06:42;2.90;;;2.70;;
11319;SDS011;5715;48.234;14.320;2023-07-20T05:09:30;3.10;;;2.90;;
11319;SDS011;5715;48.234;14.320;2023-07-20T05:12:17;3.75;;;3.45;;
11319;SDS011;5715;48.234;14.320;2023-07-20T05:15:06;3.25;;;3.03;;
11319;SDS011;5715;48.234;14.320;2023-07-20T05:17:54;3.50;;;3.25;;
11319;SDS011;5715;48.234;14.320;2023-07-20T05:20:43;3.85;;;3.63;;
11319;SDS011;5715;48.234;14.320;2023-07-20T05:23:33;4.47;;;4.18;;
11319;SDS011;5715;48.234;14.320;2023-07-20T05:26:20;3.63;;;3.42;;
11319;SDS011;5715;48.234;14.320;2023-07-20T05:29:08;4.10;;;3.88;;
11319;SDS011;5715;48.234;14.320;2023-07-20T05:31:56;6.45;;;4.03;;
11319;SDS011;5715;48.234;14.320;2023-07-20T05:34:44;4.80;;;4.50;;
11319;SDS011;5715;48.234;14.320;2023-07-20T05:37:32;4.85;;;4.45;;
11319;SDS011;5715;48.234;14.320;2023-07-20T05:40:19;4.07;;;3.78;;
11319;SDS011;5715;48.234;14.320;2023-07-20T05:43:07;3.60;;;3.40;;
11319;SDS011;5715;48.234;14.320;2023-07-20T05:45:55;2.65;;;2.53;;
11319;SDS011;5715;48.234;14.320;2023-07-20T05:48:43;2.70;;;2.50;;
11319;SDS011;5715;48.234;14.320;2023-07-20T05:51:30;3.05;;;2.85;;
11319;SDS011;5715;48.234;14.320;2023-07-20T05:54:21;2.85;;;2.65;;
11319;SDS011;5715;48.234;14.320;2023-07-20T05:57:11;3.10;;;2.63;;
11319;SDS011;5715;48.234;14.320;2023-07-20T06:00:00;2.88;;;2.03;;
11319;SDS011;5715;48.234;14.320;2023-07-20T06:02:48;2.15;;;1.90;;
11319;SDS011;5715;48.234;14.320;2023-07-20T06:05:35;2.13;;;1.92;;
11319;SDS011;5715;48.234;14.320;2023-07-20T06:08:23;3.10;;;2.42;;
11319;SDS011;5715;48.234;14.320;2023-07-20T06:11:11;2.17;;;1.70;;
11319;SDS011;5715;48.234;14.320;2023-07-20T06:13:58;1.52;;;1.42;;
11319;SDS011;5715;48.234;14.320;2023-07-20T06:16:46;2.35;;;1.65;;
11319;SDS011;5715;48.234;14.320;2023-07-20T06:19:34;1.70;;;1.58;;
11319;SDS011;5715;48.234;14.320;2023-07-20T06:22:22;4.30;;;2.10;;
11319;SDS011;5715;48.234;14.320;2023-07-20T06:25:09;2.08;;;1.85;;
11319;SDS011;5715;48.234;14.320;2023-07-20T06:27:57;4.10;;;2.67;;
11319;SDS011;5715;48.234;14.320;2023-07-20T06:30:45;3.45;;;2.33;;
11319;SDS011;5715;48.234;14.320;2023-07-20T06:33:32;2.50;;;2.00;;
11319;SDS011;5715;48.234;14.320;2023-07-20T06:36:21;3.63;;;2.25;;
11319;SDS011;5715;48.234;14.320;2023-07-20T06:39:09;1.92;;;1.80;;
11319;SDS011;5715;48.234;14.320;2023-07-20T06:42:00;6.18;;;2.20;;
11319;SDS011;5715;48.234;14.320;2023-07-20T06:44:47;2.72;;;1.65;;
11319;SDS011;5715;48.234;14.320;2023-07-20T06:47:37;2.15;;;1.92;;
11319;SDS011;5715;48.234;14.320;2023-07-20T06:50:29;2.25;;;2.05;;
11319;SDS011;5715;48.234;14.320;2023-07-20T06:53:18;3.75;;;2.67;;
11319;SDS011;5715;48.234;14.320;2023-07-20T06:56:05;2.60;;;2.40;;
11319;SDS011;5715;48.234;14.320;2023-07-20T06:58:53;2.92;;;2.72;;
11319;SDS011;5715;48.234;14.320;2023-07-20T07:01:41;2.42;;;2.22;;
11319;SDS011;5715;48.234;14.320;2023-07-20T07:04:28;1.85;;;1.75;;
11319;SDS011;5715;48.234;14.320;2023-07-20T07:07:16;2.22;;;2.03;;
11319;SDS011;5715;48.234;14.320;2023-07-20T07:10:13;4.22;;;1.70;;
11319;SDS011;5715;48.234;14.320;2023-07-20T07:13:00;1.92;;;1.45;;
11319;SDS011;5715;48.234;14.320;2023-07-20T07:15:48;8.93;;;1.80;;
11319;SDS011;5715;48.234;14.320;2023-07-20T07:18:36;1.90;;;1.70;;
11319;SDS011;5715;48.234;14.320;2023-07-20T07:21:23;8.48;;;1.67;;
11319;SDS011;5715;48.234;14.320;2023-07-20T07:24:12;1.50;;;1.40;;
11319;SDS011;5715;48.234;14.320;2023-07-20T07:27:05;3.13;;;1.40;;
11319;SDS011;5715;48.234;14.320;2023-07-20T07:29:53;4.38;;;1.77;;
11319;SDS011;5715;48.234;14.320;2023-07-20T07:32:41;3.30;;;1.85;;
11319;SDS011;5715;48.234;14.320;2023-07-20T07:35:29;4.03;;;1.17;;
11319;SDS011;5715;48.234;14.320;2023-07-20T07:38:16;1.98;;;1.55;;
11319;SDS011;5715;48.234;14.320;2023-07-20T07:41:10;5.47;;;1.30;;
11319;SDS011;5715;48.234;14.320;2023-07-20T07:43:57;2.15;;;1.70;;
11319;SDS011;5715;48.234;14.320;2023-07-20T07:46:45;1.40;;;1.30;;
11319;SDS011;5715;48.234;14.320;2023-07-20T07:49:32;1.60;;;1.50;;
11319;SDS011;5715;48.234;14.320;2023-07-20T07:52:20;10.23;;;1.67;;
11319;SDS011;5715;48.234;14.320;2023-07-20T07:55:08;2.72;;;1.70;;
11319;SDS011;5715;48.234;14.320;2023-07-20T07:57:55;1.98;;;1.42;;
11319;SDS011;5715;48.234;14.320;2023-07-20T08:00:43;2.95;;;1.90;;
11319;SDS011;5715;48.234;14.320;2023-07-20T08:03:31;2.53;;;1.30;;
11319;SDS011;5715;48.234;14.320;2023-07-20T08:06:18;7.75;;;1.85;;
11319;SDS011;5715;48.234;14.320;2023-07-20T08:09:06;1.60;;;1.50;;
11319;SDS011;5715;48.234;14.320;2023-07-20T08:11:54;3.05;;;1.85;;
11319;SDS011;5715;48.234;14.320;2023-07-20T08:14:41;2.85;;;2.22;;
11319;SDS011;5715;48.234;14.320;2023-07-20T08:17:29;5.88;;;1.83;;
11319;SDS011;5715;48.234;14.320;2023-07-20T08:20:17;2.65;;;2.22;;
11319;SDS011;5715;48.234;14.320;2023-07-20T08:23:05;9.55;;;1.90;;
11319;SDS011;5715;48.234;14.320;2023-07-20T08:25:53;13.90;;;2.20;;
11319;SDS011;5715;48.234;14.320;2023-07-20T08:28:42;2.30;;;2.10;;
11319;SDS011;5715;48.234;14.320;2023-07-20T08:31:31;3.25;;;2.17;;
11319;SDS011;5715;48.234;14.320;2023-07-20T08:34:18;2.28;;;2.05;;
11319;SDS011;5715;48.234;14.320;2023-07-20T08:37:17;4.88;;;2.15;;
11319;SDS011;5715;48.234;14.320;2023-07-20T08:40:05;5.05;;;1.95;;
11319;SDS011;5715;48.234;14.320;2023-07-20T08:42:56;2.13;;;1.92;;
11319;SDS011;5715;48.234;14.320;2023-07-20T08:45:47;2.75;;;1.83;;
11319;SDS011;5715;48.234;14.320;2023-07-20T08:48:39;2.13;;;2.03;;
11319;SDS011;5715;48.234;14.320;2023-07-20T08:51:30;3.35;;;1.85;;
11319;SDS011;5715;48.234;14.320;2023-07-20T08:54:18;4.38;;;1.70;;
11319;SDS011;5715;48.234;14.320;2023-07-20T08:57:06;4.05;;;1.95;;
11319;SDS011;5715;48.234;14.320;2023-07-20T08:59:55;1.95;;;1.85;;
11319;SDS011;5715;48.234;14.320;2023-07-20T09:02:43;1.75;;;1.65;;
11319;SDS011;5715;48.234;14.320;2023-07-20T09:05:34;2.30;;;1.80;;
11319;SDS011;5715;48.234;14.320;2023-07-20T09:08:22;3.20;;;1.98;;
11319;SDS011;5715;48.234;14.320;2023-07-20T09:11:11;4.90;;;1.50;;
11319;SDS011;5715;48.234;14.320;2023-07-20T09:14:05;2.35;;;1.70;;
11319;SDS011;5715;48.234;14.320;2023-07-20T09:16:55;8.88;;;1.75;;
11319;SDS011;5715;48.234;14.320;2023-07-20T09:19:46;12.90;;;2.50;;
11319;SDS011;5715;48.234;14.320;2023-07-20T09:22:35;1.83;;;1.73;;
11319;SDS011;5715;48.234;14.320;2023-07-20T09:25:26;5.18;;;1.60;;
11319;SDS011;5715;48.234;14.320;2023-07-20T09:28:17;3.40;;;2.00;;
11319;SDS011;5715;48.234;14.320;2023-07-20T09:31:08;7.88;;;1.63;;
11319;SDS011;5715;48.234;14.320;2023-07-20T09:34:07;2.25;;;1.50;;
11319;SDS011;5715;48.234;14.320;2023-07-20T09:36:55;1.65;;;1.55;;
11319;SDS011;5715;48.234;14.320;2023-07-20T09:39:45;1.85;;;1.48;;
11319;SDS011;5715;48.234;14.320;2023-07-20T09:42:36;2.03;;;1.50;;
11319;SDS011;5715;48.234;14.320;2023-07-20T09:45:27;3.40;;;1.80;;
11319;SDS011;5715;48.234;14.320;2023-07-20T09:48:51;1.50;;;1.40;;
11319;SDS011;5715;48.234;14.320;2023-07-20T09:51:45;3.45;;;1.70;;
11319;SDS011;5715;48.234;14.320;2023-07-20T09:54:34;1.50;;;1.40;;
11319;SDS011;5715;48.234;14.320;2023-07-20T09:57:25;2.13;;;1.50;;
11319;SDS011;5715;48.234;14.320;2023-07-20T10:00:16;2.95;;;1.58;;
11319;SDS011;5715;48.234;14.320;2023-07-20T10:03:07;1.63;;;1.40;;
11319;SDS011;5715;48.234;14.320;2023-07-20T10:06:02;1.98;;;1.40;;
11319;SDS011;5715;48.234;14.320;2023-07-20T10:08:55;2.15;;;1.20;;
11319;SDS011;5715;48.234;14.320;2023-07-20T10:11:50;2.45;;;1.58;;
11319;SDS011;5715;48.234;14.320;2023-07-20T10:15:08;3.38;;;1.83;;
11319;SDS011;5715;48.234;14.320;2023-07-20T10:18:25;2.00;;;1.80;;
11319;SDS011;5715;48.234;14.320;2023-07-20T10:21:40;5.05;;;1.83;;
11319;SDS011;5715;48.234;14.320;2023-07-20T10:24:44;4.20;;;1.70;;
11319;SDS011;5715;48.234;14.320;2023-07-20T10:27:34;2.05;;;1.88;;
11319;SDS011;5715;48.234;14.320;2023-07-20T10:30:22;4.70;;;1.50;;
11319;SDS011;5715;48.234;14.320;2023-07-20T10:33:12;1.67;;;1.52;;
11319;SDS011;5715;48.234;14.320;2023-07-20T10:36:01;1.85;;;1.70;;
11319;SDS011;5715;48.234;14.320;2023-07-20T10:38:54;1.50;;;1.40;;
11319;SDS011;5715;48.234;14.320;2023-07-20T10:41:43;2.25;;;2.05;;
11319;SDS011;5715;48.234;14.320;2023-07-20T10:44:31;2.42;;;1.80;;
11319;SDS011;5715;48.234;14.320;2023-07-20T10:47:19;4.43;;;1.70;;
11319;SDS011;5715;48.234;14.320;2023-07-20T10:50:06;5.57;;;1.45;;
11319;SDS011;5715;48.234;14.320;2023-07-20T10:56:12;1.73;;;1.63;;
11319;SDS011;5715;48.234;14.320;2023-07-20T10:59:17;2.50;;;1.63;;
11319;SDS011;5715;48.234;14.320;2023-07-20T11:02:07;1.45;;;1.35;;
11319;SDS011;5715;48.234;14.320;2023-07-20T11:04:56;2.78;;;1.60;;
11319;SDS011;5715;48.234;14.320;2023-07-20T11:07:45;2.08;;;1.75;;
11319;SDS011;5715;48.234;14.320;2023-07-20T11:10:33;5.47;;;1.63;;
11319;SDS011;5715;48.234;14.320;2023-07-20T11:13:21;5.18;;;1.50;;
11319;SDS011;5715;48.234;14.320;2023-07-20T11:16:11;1.48;;;1.30;;
11319;SDS011;5715;48.234;14.320;2023-07-20T11:18:59;2.75;;;1.50;;
11319;SDS011;5715;48.234;14.320;2023-07-20T11:21:49;1.58;;;1.40;;
11319;SDS011;5715;48.234;14.320;2023-07-20T11:24:50;2.95;;;1.23;;
11319;SDS011;5715;48.234;14.320;2023-07-20T11:27:45;4.50;;;1.70;;
11319;SDS011;5715;48.234;14.320;2023-07-20T11:30:33;3.08;;;1.52;;
11319;SDS011;5715;48.234;14.320;2023-07-20T11:33:22;5.20;;;1.60;;
11319;SDS011;5715;48.234;14.320;2023-07-20T11:36:09;1.70;;;1.58;;
11319;SDS011;5715;48.234;14.320;2023-07-20T11:39:00;1.30;;;1.20;;
11319;SDS011;5715;48.234;14.320;2023-07-20T11:41:52;2.28;;;1.48;;
11319;SDS011;5715;48.234;14.320;2023-07-20T11:44:43;8.70;;;1.30;;
11319;SDS011;5715;48.234;14.320;2023-07-20T11:47:31;3.22;;;1.20;;
11319;SDS011;5715;48.234;14.320;2023-07-20T11:50:20;1.60;;;1.42;;
11319;SDS011;5715;48.234;14.320;2023-07-20T11:53:08;2.67;;;1.23;;
11319;SDS011;5715;48.234;14.320;2023-07-20T11:55:56;6.57;;;1.58;;
11319;SDS011;5715;48.234;14.320;2023-07-20T11:58:44;1.77;;;1.40;;
11319;SDS011;5715;48.234;14.320;2023-07-20T12:01:33;1.40;;;1.30;;
11319;SDS011;5715;48.234;14.320;2023-07-20T12:04:22;1.42;;;1.00;;
11319;SDS011;5715;48.234;14.320;2023-07-20T12:07:10;1.40;;;1.30;;
11319;SDS011;5715;48.234;14.320;2023-07-20T12:10:03;3.13;;;1.50;;
11319;SDS011;5715;48.234;14.320;2023-07-20T12:12:52;1.42;;;0.98;;
11319;SDS011;5715;48.234;14.320;2023-07-20T12:15:40;1.58;;;1.30;;
11319;SDS011;5715;48.234;14.320;2023-07-20T12:18:34;1.20;;;1.00;;
11319;SDS011;5715;48.234;14.320;2023-07-20T12:21:23;2.25;;;1.30;;
11319;SDS011;5715;48.234;14.320;2023-07-20T12:24:10;1.23;;;1.10;;
11319;SDS011;5715;48.234;14.320;2023-07-20T12:26:58;15.05;;;1.40;;
11319;SDS011;5715;48.234;14.320;2023-07-20T12:29:46;1.50;;;1.00;;
11319;SDS011;5715;48.234;14.320;2023-07-20T12:32:33;5.93;;;1.65;;
11319;SDS011;5715;48.234;14.320;2023-07-20T12:35:21;1.55;;;1.00;;
11319;SDS011;5715;48.234;14.320;2023-07-20T12:38:08;1.25;;;1.15;;
11319;SDS011;5715;48.234;14.320;2023-07-20T12:40:56;2.28;;;0.93;;
11319;SDS011;5715;48.234;14.320;2023-07-20T12:43:45;1.80;;;1.55;;
11319;SDS011;5715;48.234;14.320;2023-07-20T12:46:33;1.70;;;1.30;;
11319;SDS011;5715;48.234;14.320;2023-07-20T12:49:23;1.50;;;1.10;;
11319;SDS011;5715;48.234;14.320;2023-07-20T12:52:11;1.73;;;1.35;;
11319;SDS011;5715;48.234;14.320;2023-07-20T12:54:59;1.40;;;1.17;;
11319;SDS011;5715;48.234;14.320;2023-07-20T12:57:47;2.83;;;0.90;;
11319;SDS011;5715;48.234;14.320;2023-07-20T13:00:35;0.90;;;0.90;;
11319;SDS011;5715;48.234;14.320;2023-07-20T13:03:23;1.05;;;1.00;;
11319;SDS011;5715;48.234;14.320;2023-07-20T13:06:13;2.80;;;1.30;;
11319;SDS011;5715;48.234;14.320;2023-07-20T13:09:03;1.38;;;1.27;;
11319;SDS011;5715;48.234;14.320;2023-07-20T13:11:51;1.27;;;1.17;;
11319;SDS011;5715;48.234;14.320;2023-07-20T13:14:39;2.08;;;1.13;;
11319;SDS011;5715;48.234;14.320;2023-07-20T13:17:27;1.23;;;1.13;;
11319;SDS011;5715;48.234;14.320;2023-07-20T13:20:15;1.80;;;1.20;;
11319;SDS011;5715;48.234;14.320;2023-07-20T13:23:03;1.48;;;1.38;;
11319;SDS011;5715;48.234;14.320;2023-07-20T13:25:52;1.17;;;1.08;;
11319;SDS011;5715;48.234;14.320;2023-07-20T13:28:41;2.50;;;1.52;;
11319;SDS011;5715;48.234;14.320;2023-07-20T13:31:28;4.65;;;1.20;;
11319;SDS011;5715;48.234;14.320;2023-07-20T13:34:20;2.00;;;0.98;;
11319;SDS011;5715;48.234;14.320;2023-07-20T13:37:08;1.67;;;1.25;;
11319;SDS011;5715;48.234;14.320;2023-07-20T13:39:59;2.42;;;1.65;;
11319;SDS011;5715;48.234;14.320;2023-07-20T13:42:46;1.80;;;1.17;;
11319;SDS011;5715;48.234;14.320;2023-07-20T13:45:34;2.50;;;1.10;;
11319;SDS011;5715;48.234;14.320;2023-07-20T13:48:22;1.33;;;1.23;;
11319;SDS011;5715;48.234;14.320;2023-07-20T13:51:13;1.52;;;1.30;;
11319;SDS011;5715;48.234;14.320;2023-07-20T13:54:13;1.40;;;1.30;;
11319;SDS011;5715;48.234;14.320;2023-07-20T13:57:03;1.65;;;1.27;;
11319;SDS011;5715;48.234;14.320;2023-07-20T13:59:51;3.65;;;1.30;;
11319;SDS011;5715;48.234;14.320;2023-07-20T14:02:39;2.13;;;1.92;;
11319;SDS011;5715;48.234;14.320;2023-07-20T14:05:29;2.25;;;1.55;;
11319;SDS011;5715;48.234;14.320;2023-07-20T14:08:20;2.40;;;1.23;;
11319;SDS011;5715;48.234;14.320;2023-07-20T14:11:08;1.80;;;1.33;;
11319;SDS011;5715;48.234;14.320;2023-07-20T14:13:58;1.95;;;1.30;;
11319;SDS011;5715;48.234;14.320;2023-07-20T14:16:46;1.30;;;1.20;;
11319;SDS011;5715;48.234;14.320;2023-07-20T14:19:33;2.08;;;1.20;;
11319;SDS011;5715;48.234;14.320;2023-07-20T14:22:23;1.38;;;1.13;;
11319;SDS011;5715;48.234;14.320;2023-07-20T14:25:12;5.28;;;1.23;;
11319;SDS011;5715;48.234;14.320;2023-07-20T14:28:01;1.55;;;1.30;;
11319;SDS011;5715;48.234;14.320;2023-07-20T14:30:49;2.20;;;1.20;;
11319;SDS011;5715;48.234;14.320;2023-07-20T14:33:37;1.10;;;1.00;;
11319;SDS011;5715;48.234;14.320;2023-07-20T14:36:25;4.88;;;1.50;;
11319;SDS011;5715;48.234;14.320;2023-07-20T14:39:13;1.48;;;1.13;;
11319;SDS011;5715;48.234;14.320;2023-07-20T14:42:01;1.13;;;1.05;;
11319;SDS011;5715;48.234;14.320;2023-07-20T14:44:50;1.50;;;1.25;;
11319;SDS011;5715;48.234;14.320;2023-07-20T14:47:38;1.48;;;1.30;;
11319;SDS011;5715;48.234;14.320;2023-07-20T14:50:26;1.42;;;1.33;;
11319;SDS011;5715;48.234;14.320;2023-07-20T14:53:14;1.23;;;1.10;;
11319;SDS011;5715;48.234;14.320;2023-07-20T14:56:04;2.08;;;1.75;;
11319;SDS011;5715;48.234;14.320;2023-07-20T14:58:52;1.27;;;1.17;;
11319;SDS011;5715;48.234;14.320;2023-07-20T15:01:39;2.42;;;1.55;;
11319;SDS011;5715;48.234;14.320;2023-07-20T15:04:27;1.85;;;1.60;;
11319;SDS011;5715;48.234;14.320;2023-07-20T15:07:15;1.20;;;0.98;;
11319;SDS011;5715;48.234;14.320;2023-07-20T15:10:05;2.72;;;2.17;;
11319;SDS011;5715;48.234;14.320;2023-07-20T15:12:53;2.35;;;1.33;;
11319;SDS011;5715;48.234;14.320;2023-07-20T15:15:41;5.60;;;1.52;;
11319;SDS011;5715;48.234;14.320;2023-07-20T15:18:30;1.10;;;1.00;;
11319;SDS011;5715;48.234;14.320;2023-07-20T15:21:33;1.67;;;1.40;;
11319;SDS011;5715;48.234;14.320;2023-07-20T15:24:21;1.10;;;1.00;;
11319;SDS011;5715;48.234;14.320;2023-07-20T15:27:09;1.77;;;1.50;;
11319;SDS011;5715;48.234;14.320;2023-07-20T15:29:56;1.42;;;1.05;;
11319;SDS011;5715;48.234;14.320;2023-07-20T15:32:44;1.52;;;1.42;;
11319;SDS011;5715;48.234;14.320;2023-07-20T15:35:34;1.40;;;1.30;;
11319;SDS011;5715;48.234;14.320;2023-07-20T15:38:23;3.55;;;1.58;;
11319;SDS011;5715;48.234;14.320;2023-07-20T15:41:10;2.13;;;1.60;;
11319;SDS011;5715;48.234;14.320;2023-07-20T15:43:59;3.35;;;1.65;;
11319;SDS011;5715;48.234;14.320;2023-07-20T15:46:48;1.65;;;1.48;;
11319;SDS011;5715;48.234;14.320;2023-07-20T15:49:36;2.03;;;1.33;;
11319;SDS011;5715;48.234;14.320;2023-07-20T15:52:24;1.88;;;1.60;;
11319;SDS011;5715;48.234;14.320;2023-07-20T15:55:11;1.52;;;1.40;;
11319;SDS011;5715;48.234;14.320;2023-07-20T15:58:00;2.70;;;1.30;;
11319;SDS011;5715;48.234;14.320;2023-07-20T16:00:52;1.58;;;1.27;;
11319;SDS011;5715;48.234;14.320;2023-07-20T16:03:44;2.42;;;1.02;;
11319;SDS011;5715;48.234;14.320;2023-07-20T16:06:32;2.47;;;1.42;;
11319;SDS011;5715;48.234;14.320;2023-07-20T16:09:22;1.33;;;1.00;;
11319;SDS011;5715;48.234;14.320;2023-07-20T16:12:10;1.90;;;1.55;;
11319;SDS011;5715;48.234;14.320;2023-07-20T16:14:57;3.08;;;1.30;;
11319;SDS011;5715;48.234;14.320;2023-07-20T16:17:48;2.40;;;1.38;;
11319;SDS011;5715;48.234;14.320;2023-07-20T16:20:35;1.40;;;1.30;;
11319;SDS011;5715;48.234;14.320;2023-07-20T16:23:25;1.83;;;1.50;;
11319;SDS011;5715;48.234;14.320;2023-07-20T16:26:15;1.40;;;1.30;;
11319;SDS011;5715;48.234;14.320;2023-07-20T16:29:03;4.65;;;1.98;;
11319;SDS011;5715;48.234;14.320;2023-07-20T16:31:53;1.17;;;1.05;;
11319;SDS011;5715;48.234;14.320;2023-07-20T16:34:43;3.60;;;1.95;;
11319;SDS011;5715;48.234;14.320;2023-07-20T16:37:35;2.50;;;1.27;;
11319;SDS011;5715;48.234;14.320;2023-07-20T16:40:22;1.30;;;1.20;;
11319;SDS011;5715;48.234;14.320;2023-07-20T16:43:13;1.67;;;1.58;;
11319;SDS011;5715;48.234;14.320;2023-07-20T16:46:02;1.30;;;1.20;;
11319;SDS011;5715;48.234;14.320;2023-07-20T16:48:55;1.30;;;1.20;;
11319;SDS011;5715;48.234;14.320;2023-07-20T16:51:42;1.30;;;1.20;;
11319;SDS011;5715;48.234;14.320;2023-07-20T16:54:30;1.55;;;1.20;;
11319;SDS011;5715;48.234;14.320;2023-07-20T16:57:17;7.70;;;1.60;;
11319;SDS011;5715;48.234;14.320;2023-07-20T17:00:05;1.70;;;1.30;;
11319;SDS011;5715;48.234;14.320;2023-07-20T17:02:57;2.17;;;1.75;;
11319;SDS011;5715;48.234;14.320;2023-07-20T17:05:45;1.35;;;1.25;;
11319;SDS011;5715;48.234;14.320;2023-07-20T17:08:33;2.25;;;1.70;;
11319;SDS011;5715;48.234;14.320;2023-07-20T17:11:21;1.58;;;1.45;;
11319;SDS011;5715;48.234;14.320;2023-07-20T17:14:09;2.80;;;1.50;;